sensor_id;sensor_type;location;lat;lon;timestamp;pressure;altitude;pressure_sealevel;temperature;humidity
5609;BME280;2826;51.354;9.588;2024-03-02T00:00:29;96974.38;;;9.86;70.53
5609;BME280;2826;51.354;9.588;2024-03-02T00:02:57;96973.53;;;9.85;70.33
5609;BME280;2826;51.354;9.588;2024-03-02T00:05:24;96975.38;;;9.83;70.50
5609;BME280;2826;51.354;9.588;2024-03-02T00:07:53;96979.06;;;9.79;70.78
5609;BME280;2826;51.354;9.588;2024-03-02T00:10:22;96971.22;;;9.80;71.03
5609;BME280;2826;51.354;9.588;2024-03-02T00:12:55;96969.69;;;9.92;70.14
5609;BME280;2826;51.354;9.588;2024-03-02T00:15:40;96970.50;;;9.93;70.22
5609;BME280;2826;51.354;9.588;2024-03-02T00:18:10;96968.91;;;9.90;70.75
5609;BME280;2826;51.354;9.588;2024-03-02T00:20:37;96965.31;;;9.93;70.22
5609;BME280;2826;51.354;9.588;2024-03-02T00:23:05;96969.09;;;9.87;70.65
5609;BME280;2826;51.354;9.588;2024-03-02T00:25:39;96963.94;;;9.87;70.40
5609;BME280;2826;51.354;9.588;2024-03-02T00:28:13;96967.59;;;9.83;70.72
5609;BME280;2826;51.354;9.588;2024-03-02T00:30:52;96957.69;;;9.75;70.80
5609;BME280;2826;51.354;9.588;2024-03-02T00:33:23;96968.63;;;9.80;70.78
5609;BME280;2826;51.354;9.588;2024-03-02T00:35:50;96973.28;;;9.90;70.43
5609;BME280;2826;51.354;9.588;2024-03-02T00:38:17;96967.81;;;9.94;69.94
5609;BME280;2826;51.354;9.588;2024-03-02T00:40:44;96979.88;;;9.96;69.79
5609;BME280;2826;51.354;9.588;2024-03-02T00:43:29;96975.19;;;10.02;69.50
5609;BME280;2826;51.354;9.588;2024-03-02T00:46:03;96972.31;;;10.07;69.39
5609;BME280;2826;51.354;9.588;2024-03-02T00:48:32;96970.97;;;10.00;69.15
5609;BME280;2826;51.354;9.588;2024-03-02T00:51:01;96979.34;;;10.05;69.39
5609;BME280;2826;51.354;9.588;2024-03-02T00:53:29;96974.66;;;10.12;68.84
5609;BME280;2826;51.354;9.588;2024-03-02T00:55:56;96972.31;;;10.07;69.19
5609;BME280;2826;51.354;9.588;2024-03-02T00:58:23;96977.84;;;10.01;69.53
5609;BME280;2826;51.354;9.588;2024-03-02T01:00:50;96977.84;;;10.01;69.62
5609;BME280;2826;51.354;9.588;2024-03-02T01:03:16;96980.25;;;10.04;69.05
5609;BME280;2826;51.354;9.588;2024-03-02T01:05:46;96978.41;;;10.06;69.49
5609;BME280;2826;51.354;9.588;2024-03-02T01:08:13;96975.84;;;10.06;69.29
5609;BME280;2826;51.354;9.588;2024-03-02T01:10:40;96975.25;;;10.01;69.11
5609;BME280;2826;51.354;9.588;2024-03-02T01:13:06;96974.97;;;10.05;69.27
5609;BME280;2826;51.354;9.588;2024-03-02T01:15:33;96970.81;;;10.03;69.15
5609;BME280;2826;51.354;9.588;2024-03-02T01:18:00;96969.88;;;10.04;69.11
5609;BME280;2826;51.354;9.588;2024-03-02T01:20:26;96968.06;;;10.06;69.54
5609;BME280;2826;51.354;9.588;2024-03-02T01:22:54;96968.31;;;10.01;69.64
5609;BME280;2826;51.354;9.588;2024-03-02T01:25:21;96966.72;;;9.99;69.62
5609;BME280;2826;51.354;9.588;2024-03-02T01:27:47;96970.31;;;9.96;69.80
5609;BME280;2826;51.354;9.588;2024-03-02T01:30:14;96962.84;;;9.91;70.28
5609;BME280;2826;51.354;9.588;2024-03-02T01:32:41;96962.00;;;9.91;69.90
5609;BME280;2826;51.354;9.588;2024-03-02T01:35:07;96954.88;;;9.94;70.04
5609;BME280;2826;51.354;9.588;2024-03-02T01:37:34;96960.06;;;9.94;69.98
5609;BME280;2826;51.354;9.588;2024-03-02T01:40:03;96958.22;;;9.97;70.44
5609;BME280;2826;51.354;9.588;2024-03-02T01:42:35;96958.38;;;9.93;70.43
5609;BME280;2826;51.354;9.588;2024-03-02T01:45:02;96953.28;;;9.92;70.18
5609;BME280;2826;51.354;9.588;2024-03-02T01:47:29;96949.13;;;9.89;70.68
5609;BME280;2826;51.354;9.588;2024-03-02T01:49:56;96947.47;;;9.88;70.43
5609;BME280;2826;51.354;9.588;2024-03-02T01:52:23;96948.31;;;9.89;71.32
5609;BME280;2826;51.354;9.588;2024-03-02T01:54:50;96938.78;;;9.89;70.97
5609;BME280;2826;51.354;9.588;2024-03-02T01:57:18;96901.44;;;9.63;70.97
5609;BME280;2826;51.354;9.588;2024-03-02T01:59:46;96946.69;;;9.86;71.52
5609;BME280;2826;51.354;9.588;2024-03-02T02:02:14;96939.94;;;9.84;71.69
5609;BME280;2826;51.354;9.588;2024-03-02T02:04:40;96935.69;;;9.83;71.56
5609;BME280;2826;51.354;9.588;2024-03-02T02:07:07;96934.28;;;9.77;72.56
5609;BME280;2826;51.354;9.588;2024-03-02T02:09:34;96933.75;;;9.86;72.63
5609;BME280;2826;51.354;9.588;2024-03-02T02:12:00;96932.00;;;9.87;71.92
5609;BME280;2826;51.354;9.588;2024-03-02T02:14:29;96922.59;;;9.86;72.38
5609;BME280;2826;51.354;9.588;2024-03-02T02:16:56;96922.66;;;9.84;72.34
5609;BME280;2826;51.354;9.588;2024-03-02T02:19:22;96924.59;;;9.80;73.18
5609;BME280;2826;51.354;9.588;2024-03-02T02:21:50;96922.75;;;9.83;72.58
5609;BME280;2826;51.354;9.588;2024-03-02T02:24:17;96920.53;;;9.76;73.25
5609;BME280;2826;51.354;9.588;2024-03-02T02:26:44;96928.78;;;9.83;73.03
5609;BME280;2826;51.354;9.588;2024-03-02T02:29:11;96912.19;;;9.71;72.84
5609;BME280;2826;51.354;9.588;2024-03-02T02:31:37;96925.41;;;9.81;72.91
5609;BME280;2826;51.354;9.588;2024-03-02T02:34:05;96917.84;;;9.78;73.11
5609;BME280;2826;51.354;9.588;2024-03-02T02:36:31;96898.06;;;9.61;73.21
5609;BME280;2826;51.354;9.588;2024-03-02T02:39:02;96917.44;;;9.70;73.38
5609;BME280;2826;51.354;9.588;2024-03-02T02:41:30;96919.25;;;9.67;73.66
5609;BME280;2826;51.354;9.588;2024-03-02T02:43:56;96915.59;;;9.72;73.22
5609;BME280;2826;51.354;9.588;2024-03-02T02:46:23;96914.28;;;9.64;73.06
5609;BME280;2826;51.354;9.588;2024-03-02T02:48:50;96914.84;;;9.70;73.00
5609;BME280;2826;51.354;9.588;2024-03-02T02:51:18;96864.06;;;9.36;73.05
5609;BME280;2826;51.354;9.588;2024-03-02T02:53:45;96911.94;;;9.60;73.29
5609;BME280;2826;51.354;9.588;2024-03-02T02:56:13;96910.28;;;9.59;73.60
5609;BME280;2826;51.354;9.588;2024-03-02T02:58:40;96900.94;;;9.56;73.64
5609;BME280;2826;51.354;9.588;2024-03-02T03:01:07;96900.94;;;9.56;73.71
5609;BME280;2826;51.354;9.588;2024-03-02T03:03:34;96899.25;;;9.55;73.34
5609;BME280;2826;51.354;9.588;2024-03-02T03:06:01;96895.91;;;9.53;73.34
5609;BME280;2826;51.354;9.588;2024-03-02T03:08:27;96900.53;;;9.48;73.85
5609;BME280;2826;51.354;9.588;2024-03-02T03:10:54;96904.94;;;9.46;73.58
5609;BME280;2826;51.354;9.588;2024-03-02T03:13:22;96904.28;;;9.42;73.87
5609;BME280;2826;51.354;9.588;2024-03-02T03:15:49;96902.47;;;9.44;73.51
5609;BME280;2826;51.354;9.588;2024-03-02T03:18:15;96903.34;;;9.43;73.56
5609;BME280;2826;51.354;9.588;2024-03-02T03:20:42;96900.78;;;9.43;73.63
5609;BME280;2826;51.354;9.588;2024-03-02T03:23:09;96901.63;;;9.44;73.69
5609;BME280;2826;51.354;9.588;2024-03-02T03:25:40;96899.09;;;9.42;73.51
5609;BME280;2826;51.354;9.588;2024-03-02T03:28:07;96900.03;;;9.41;73.82
5609;BME280;2826;51.354;9.588;2024-03-02T03:30:36;96901.03;;;9.38;73.40
5609;BME280;2826;51.354;9.588;2024-03-02T03:33:03;96901.47;;;9.31;74.28
5609;BME280;2826;51.354;9.588;2024-03-02T03:35:31;96901.03;;;9.38;74.21
5609;BME280;2826;51.354;9.588;2024-03-02T03:37:58;96898.63;;;9.35;73.86
5609;BME280;2826;51.354;9.588;2024-03-02T03:40:25;96890.19;;;9.32;74.05
5609;BME280;2826;51.354;9.588;2024-03-02T03:42:51;96893.78;;;9.29;73.88
5609;BME280;2826;51.354;9.588;2024-03-02T03:45:18;96894.44;;;9.33;73.89
5609;BME280;2826;51.354;9.588;2024-03-02T03:47:46;96895.44;;;9.30;74.27
5609;BME280;2826;51.354;9.588;2024-03-02T03:50:13;96901.63;;;9.27;73.59
5609;BME280;2826;51.354;9.588;2024-03-02T03:52:40;96899.28;;;9.23;74.03
5609;BME280;2826;51.354;9.588;2024-03-02T03:55:07;96897.63;;;9.22;73.89
5609;BME280;2826;51.354;9.588;2024-03-02T03:57:35;96890.78;;;9.21;73.87
5609;BME280;2826;51.354;9.588;2024-03-02T04:00:03;96896.13;;;9.18;73.99
5609;BME280;2826;51.354;9.588;2024-03-02T04:02:37;96895.38;;;9.15;74.06
5609;BME280;2826;51.354;9.588;2024-03-02T04:05:06;96895.53;;;9.12;74.25
5609;BME280;2826;51.354;9.588;2024-03-02T04:07:35;96893.19;;;9.08;74.66
5609;BME280;2826;51.354;9.588;2024-03-02T04:10:09;96901.78;;;9.08;74.61
5609;BME280;2826;51.354;9.588;2024-03-02T04:12:36;96910.56;;;9.06;74.55
5609;BME280;2826;51.354;9.588;2024-03-02T04:15:04;96912.28;;;9.05;74.64
5609;BME280;2826;51.354;9.588;2024-03-02T04:17:32;96907.31;;;9.02;74.60
5609;BME280;2826;51.354;9.588;2024-03-02T04:20:02;96904.72;;;9.02;74.53
5609;BME280;2826;51.354;9.588;2024-03-02T04:22:32;96888.94;;;8.91;74.89
5609;BME280;2826;51.354;9.588;2024-03-02T04:24:59;96900.56;;;8.99;74.78
5609;BME280;2826;51.354;9.588;2024-03-02T04:27:26;96898.94;;;8.97;74.85
5609;BME280;2826;51.354;9.588;2024-03-02T04:29:52;96893.94;;;8.94;74.95
5609;BME280;2826;51.354;9.588;2024-03-02T04:32:19;96897.28;;;8.96;75.06
5609;BME280;2826;51.354;9.588;2024-03-02T04:34:46;96904.09;;;8.97;75.42
5609;BME280;2826;51.354;9.588;2024-03-02T04:37:12;96905.03;;;8.96;75.21
5609;BME280;2826;51.354;9.588;2024-03-02T04:39:41;96910.19;;;8.96;74.77
5609;BME280;2826;51.354;9.588;2024-03-02T04:42:08;96903.44;;;8.93;75.00
5609;BME280;2826;51.354;9.588;2024-03-02T04:44:34;96908.94;;;8.87;75.29
5609;BME280;2826;51.354;9.588;2024-03-02T04:47:02;96914.88;;;8.89;75.16
5609;BME280;2826;51.354;9.588;2024-03-02T04:49:29;96917.44;;;8.89;75.10
5609;BME280;2826;51.354;9.588;2024-03-02T04:51:56;96914.06;;;8.88;75.05
5609;BME280;2826;51.354;9.588;2024-03-02T04:54:23;96916.72;;;8.87;74.59
5609;BME280;2826;51.354;9.588;2024-03-02T04:56:51;96916.94;;;8.82;74.71
5609;BME280;2826;51.354;9.588;2024-03-02T04:59:19;96921.44;;;8.79;74.51
5609;BME280;2826;51.354;9.588;2024-03-02T05:01:45;96909.66;;;8.73;74.82
5609;BME280;2826;51.354;9.588;2024-03-02T05:04:12;96909.94;;;8.68;74.77
5609;BME280;2826;51.354;9.588;2024-03-02T05:06:39;96918.50;;;8.69;74.88
5609;BME280;2826;51.354;9.588;2024-03-02T05:09:06;96917.97;;;8.62;74.48
5609;BME280;2826;51.354;9.588;2024-03-02T05:11:33;96916.53;;;8.56;74.35
5609;BME280;2826;51.354;9.588;2024-03-02T05:14:25;96924.59;;;8.50;74.64
5609;BME280;2826;51.354;9.588;2024-03-02T05:16:52;96917.91;;;8.46;74.54
5609;BME280;2826;51.354;9.588;2024-03-02T05:19:18;96911.22;;;8.42;74.46
5609;BME280;2826;51.354;9.588;2024-03-02T05:21:45;96913.88;;;8.40;74.55
5609;BME280;2826;51.354;9.588;2024-03-02T05:24:12;96919.91;;;8.41;75.02
5609;BME280;2826;51.354;9.588;2024-03-02T05:26:39;96920.06;;;8.37;74.94
5609;BME280;2826;51.354;9.588;2024-03-02T05:29:05;96915.81;;;8.36;74.73
5609;BME280;2826;51.354;9.588;2024-03-02T05:31:34;96914.06;;;8.37;74.69
5609;BME280;2826;51.354;9.588;2024-03-02T05:34:00;96918.47;;;8.35;74.81
5609;BME280;2826;51.354;9.588;2024-03-02T05:36:28;96925.28;;;8.36;74.97
5609;BME280;2826;51.354;9.588;2024-03-02T05:38:54;96922.72;;;8.36;74.90
5609;BME280;2826;51.354;9.588;2024-03-02T05:41:21;96927.06;;;8.35;75.00
5609;BME280;2826;51.354;9.588;2024-03-02T05:43:47;96933.13;;;8.34;75.11
5609;BME280;2826;51.354;9.588;2024-03-02T05:46:15;96936.59;;;8.33;74.95
5609;BME280;2826;51.354;9.588;2024-03-02T05:48:43;96934.09;;;8.32;75.06
5609;BME280;2826;51.354;9.588;2024-03-02T05:51:09;96941.84;;;8.32;75.07
5609;BME280;2826;51.354;9.588;2024-03-02T05:53:36;96937.59;;;8.31;74.92
5609;BME280;2826;51.354;9.588;2024-03-02T05:56:04;96934.94;;;8.32;75.06
5609;BME280;2826;51.354;9.588;2024-03-02T05:58:31;96940.97;;;8.33;75.06
5609;BME280;2826;51.354;9.588;2024-03-02T06:01:08;96943.63;;;8.31;75.33
5609;BME280;2826;51.354;9.588;2024-03-02T06:03:35;96949.59;;;8.32;75.25
5609;BME280;2826;51.354;9.588;2024-03-02T06:06:03;96942.78;;;8.31;75.19
5609;BME280;2826;51.354;9.588;2024-03-02T06:08:30;96946.19;;;8.31;75.09
5609;BME280;2826;51.354;9.588;2024-03-02T06:10:57;96947.00;;;8.32;75.72
5609;BME280;2826;51.354;9.588;2024-03-02T06:13:24;96941.78;;;8.33;75.15
5609;BME280;2826;51.354;9.588;2024-03-02T06:15:51;96943.63;;;8.31;75.77
5609;BME280;2826;51.354;9.588;2024-03-02T06:18:18;96950.31;;;8.35;75.39
5609;BME280;2826;51.354;9.588;2024-03-02T06:20:45;96950.22;;;8.37;75.74
5609;BME280;2826;51.354;9.588;2024-03-02T06:23:13;96955.22;;;8.40;75.65
5609;BME280;2826;51.354;9.588;2024-03-02T06:25:39;96961.16;;;8.42;75.39
5609;BME280;2826;51.354;9.588;2024-03-02T06:28:06;96960.91;;;8.47;75.51
5609;BME280;2826;51.354;9.588;2024-03-02T06:30:33;96965.25;;;8.46;75.71
5609;BME280;2826;51.354;9.588;2024-03-02T06:32:59;96966.84;;;8.49;75.42
5609;BME280;2826;51.354;9.588;2024-03-02T06:35:26;96965.84;;;8.52;75.77
5609;BME280;2826;51.354;9.588;2024-03-02T06:37:53;96965.81;;;8.53;75.44
5609;BME280;2826;51.354;9.588;2024-03-02T06:40:21;96963.06;;;8.56;75.36
5609;BME280;2826;51.354;9.588;2024-03-02T06:42:47;96973.25;;;8.59;75.67
5609;BME280;2826;51.354;9.588;2024-03-02T06:45:14;96980.78;;;8.64;75.51
5609;BME280;2826;51.354;9.588;2024-03-02T06:47:41;96983.09;;;8.69;75.42
5609;BME280;2826;51.354;9.588;2024-03-02T06:50:08;96982.88;;;8.73;75.35
5609;BME280;2826;51.354;9.588;2024-03-02T06:52:35;96979.22;;;8.78;75.57
5609;BME280;2826;51.354;9.588;2024-03-02T06:55:02;96985.72;;;8.85;75.52
5609;BME280;2826;51.354;9.588;2024-03-02T06:57:30;96981.25;;;8.88;75.74
5609;BME280;2826;51.354;9.588;2024-03-02T06:59:57;96983.28;;;8.99;75.50
5609;BME280;2826;51.354;9.588;2024-03-02T07:02:24;96987.19;;;9.07;75.28
5609;BME280;2826;51.354;9.588;2024-03-02T07:04:52;96997.97;;;9.15;75.17
5609;BME280;2826;51.354;9.588;2024-03-02T07:07:18;96997.66;;;9.21;75.26
5609;BME280;2826;51.354;9.588;2024-03-02T07:09:45;96992.97;;;9.28;74.86
5609;BME280;2826;51.354;9.588;2024-03-02T07:12:11;96991.91;;;9.32;75.19
5609;BME280;2826;51.354;9.588;2024-03-02T07:14:39;96999.34;;;9.38;75.22
5609;BME280;2826;51.354;9.588;2024-03-02T07:17:36;96994.59;;;9.47;74.75
5609;BME280;2826;51.354;9.588;2024-03-02T07:20:04;97003.75;;;9.52;74.85
5609;BME280;2826;51.354;9.588;2024-03-02T07:22:32;97005.13;;;9.60;74.88
5609;BME280;2826;51.354;9.588;2024-03-02T07:24:58;96972.06;;;9.49;74.57
5609;BME280;2826;51.354;9.588;2024-03-02T07:27:25;97007.78;;;9.74;74.36
5609;BME280;2826;51.354;9.588;2024-03-02T07:29:53;97006.59;;;9.80;73.93
5609;BME280;2826;51.354;9.588;2024-03-02T07:32:19;97010.25;;;9.92;73.61
5609;BME280;2826;51.354;9.588;2024-03-02T07:34:46;97020.09;;;10.01;73.38
5609;BME280;2826;51.354;9.588;2024-03-02T07:37:12;97023.03;;;10.11;73.34
5609;BME280;2826;51.354;9.588;2024-03-02T07:39:39;97018.91;;;10.23;72.99
5609;BME280;2826;51.354;9.588;2024-03-02T07:42:06;97014.75;;;10.35;72.99
5609;BME280;2826;51.354;9.588;2024-03-02T07:44:33;97031.59;;;10.44;71.71
5609;BME280;2826;51.354;9.588;2024-03-02T07:47:01;97027.53;;;10.54;71.43
5609;BME280;2826;51.354;9.588;2024-03-02T07:49:28;97023.75;;;10.60;70.98
5609;BME280;2826;51.354;9.588;2024-03-02T07:51:54;97026.38;;;10.75;71.20
5609;BME280;2826;51.354;9.588;2024-03-02T07:54:21;97030.91;;;10.85;70.64
5609;BME280;2826;51.354;9.588;2024-03-02T07:56:48;97031.31;;;10.94;69.63
5609;BME280;2826;51.354;9.588;2024-03-02T07:59:15;97031.88;;;10.99;69.54
5609;BME280;2826;51.354;9.588;2024-03-02T08:01:41;97033.16;;;11.06;69.52
5609;BME280;2826;51.354;9.588;2024-03-02T08:04:09;97033.72;;;11.11;69.48
5609;BME280;2826;51.354;9.588;2024-03-02T08:06:36;97039.47;;;11.17;69.17
5609;BME280;2826;51.354;9.588;2024-03-02T08:09:03;97037.34;;;11.23;68.43
5609;BME280;2826;51.354;9.588;2024-03-02T08:11:35;97034.56;;;11.27;68.79
5609;BME280;2826;51.354;9.588;2024-03-02T08:14:02;97031.59;;;11.33;68.64
5609;BME280;2826;51.354;9.588;2024-03-02T08:16:29;97033.06;;;11.37;67.89
5609;BME280;2826;51.354;9.588;2024-03-02T08:18:56;97042.41;;;11.40;67.92
5609;BME280;2826;51.354;9.588;2024-03-02T08:21:25;97032.72;;;11.43;68.08
5609;BME280;2826;51.354;9.588;2024-03-02T08:23:52;97040.00;;;11.51;68.01
5609;BME280;2826;51.354;9.588;2024-03-02T08:26:18;97038.81;;;11.57;67.84
5609;BME280;2826;51.354;9.588;2024-03-02T08:28:45;97038.50;;;11.61;67.72
5609;BME280;2826;51.354;9.588;2024-03-02T08:31:12;97035.81;;;11.63;66.73
5609;BME280;2826;51.354;9.588;2024-03-02T08:33:38;97031.47;;;11.63;66.86
5609;BME280;2826;51.354;9.588;2024-03-02T08:36:06;97041.47;;;11.70;66.53
5609;BME280;2826;51.354;9.588;2024-03-02T08:38:34;97036.00;;;11.74;65.72
5609;BME280;2826;51.354;9.588;2024-03-02T08:41:00;97037.66;;;11.75;66.29
5609;BME280;2826;51.354;9.588;2024-03-02T08:43:26;97041.50;;;11.83;65.47
5609;BME280;2826;51.354;9.588;2024-03-02T08:45:53;97038.44;;;11.91;65.66
5609;BME280;2826;51.354;9.588;2024-03-02T08:48:20;97038.91;;;11.97;65.35
5609;BME280;2826;51.354;9.588;2024-03-02T08:50:46;97041.84;;;12.06;64.71
5609;BME280;2826;51.354;9.588;2024-03-02T08:53:13;97047.59;;;12.11;64.71
5609;BME280;2826;51.354;9.588;2024-03-02T08:55:45;97041.47;;;12.12;63.90
5609;BME280;2826;51.354;9.588;2024-03-02T08:58:12;97041.91;;;12.19;63.71
5609;BME280;2826;51.354;9.588;2024-03-02T09:00:39;97044.44;;;12.33;63.60
5609;BME280;2826;51.354;9.588;2024-03-02T09:03:06;97036.69;;;12.46;63.42
5609;BME280;2826;51.354;9.588;2024-03-02T09:05:33;96994.94;;;12.35;62.94
5609;BME280;2826;51.354;9.588;2024-03-02T09:07:59;97028.28;;;12.68;62.24
5609;BME280;2826;51.354;9.588;2024-03-02T09:10:26;97032.78;;;12.79;61.10
5609;BME280;2826;51.354;9.588;2024-03-02T09:12:54;97034.84;;;12.87;60.41
5609;BME280;2826;51.354;9.588;2024-03-02T09:15:21;97031.84;;;12.93;60.04
5609;BME280;2826;51.354;9.588;2024-03-02T09:17:47;97038.38;;;12.99;58.75
5609;BME280;2826;51.354;9.588;2024-03-02T09:20:14;97044.00;;;13.06;58.73
5609;BME280;2826;51.354;9.588;2024-03-02T09:22:41;97045.59;;;13.09;57.13
5609;BME280;2826;51.354;9.588;2024-03-02T09:25:08;97042.66;;;13.13;57.61
5609;BME280;2826;51.354;9.588;2024-03-02T09:27:36;97038.06;;;13.17;58.04
5609;BME280;2826;51.354;9.588;2024-03-02T09:30:06;97040.03;;;13.26;57.60
5609;BME280;2826;51.354;9.588;2024-03-02T09:32:33;97044.09;;;13.30;56.95
5609;BME280;2826;51.354;9.588;2024-03-02T09:35:00;97047.22;;;13.23;55.85
5609;BME280;2826;51.354;9.588;2024-03-02T09:37:27;97049.31;;;13.30;55.24
5609;BME280;2826;51.354;9.588;2024-03-02T09:39:54;97051.06;;;13.43;55.75
5609;BME280;2826;51.354;9.588;2024-03-02T09:42:21;97053.78;;;13.54;56.15
5609;BME280;2826;51.354;9.588;2024-03-02T09:44:48;97046.50;;;13.59;55.36
5609;BME280;2826;51.354;9.588;2024-03-02T09:47:16;97054.59;;;13.68;54.66
5609;BME280;2826;51.354;9.588;2024-03-02T09:49:42;97050.75;;;13.74;54.87
5609;BME280;2826;51.354;9.588;2024-03-02T09:52:10;97056.56;;;13.77;54.15
5609;BME280;2826;51.354;9.588;2024-03-02T09:54:37;97061.97;;;13.74;53.18
5609;BME280;2826;51.354;9.588;2024-03-02T09:57:04;97068.22;;;13.71;54.26
5609;BME280;2826;51.354;9.588;2024-03-02T09:59:30;97069.72;;;13.63;54.65
5609;BME280;2826;51.354;9.588;2024-03-02T10:01:58;97068.88;;;13.62;54.68
5609;BME280;2826;51.354;9.588;2024-03-02T10:04:27;97066.16;;;13.64;55.15
5609;BME280;2826;51.354;9.588;2024-03-02T10:07:11;97067.00;;;13.64;55.01
5609;BME280;2826;51.354;9.588;2024-03-02T10:09:38;97063.47;;;13.52;55.55
5609;BME280;2826;51.354;9.588;2024-03-02T10:12:06;97062.75;;;13.50;56.10
5609;BME280;2826;51.354;9.588;2024-03-02T10:14:34;97062.88;;;13.49;55.58
5609;BME280;2826;51.354;9.588;2024-03-02T10:17:04;97058.88;;;13.43;55.54
5609;BME280;2826;51.354;9.588;2024-03-02T10:19:33;97058.88;;;13.43;56.28
5609;BME280;2826;51.354;9.588;2024-03-02T10:22:00;97065.53;;;13.47;55.81
5609;BME280;2826;51.354;9.588;2024-03-02T10:24:34;97063.38;;;13.41;55.68
5609;BME280;2826;51.354;9.588;2024-03-02T10:27:06;97064.81;;;13.45;55.70
5609;BME280;2826;51.354;9.588;2024-03-02T10:29:37;97065.13;;;13.53;55.47
5609;BME280;2826;51.354;9.588;2024-03-02T10:32:04;97065.78;;;13.57;55.11
5609;BME280;2826;51.354;9.588;2024-03-02T10:34:33;97069.94;;;13.59;54.45
5609;BME280;2826;51.354;9.588;2024-03-02T10:37:00;97076.59;;;13.51;53.73
5609;BME280;2826;51.354;9.588;2024-03-02T10:39:27;97070.03;;;13.58;54.27
5609;BME280;2826;51.354;9.588;2024-03-02T10:41:55;97074.00;;;13.64;54.29
5609;BME280;2826;51.354;9.588;2024-03-02T10:44:23;97073.88;;;13.65;53.49
5609;BME280;2826;51.354;9.588;2024-03-02T10:46:49;97076.59;;;13.64;52.43
5609;BME280;2826;51.354;9.588;2024-03-02T10:49:16;97079.09;;;13.65;52.49
5609;BME280;2826;51.354;9.588;2024-03-02T10:51:44;97082.41;;;13.80;52.84
5609;BME280;2826;51.354;9.588;2024-03-02T10:54:11;97084.47;;;13.88;52.64
5609;BME280;2826;51.354;9.588;2024-03-02T10:56:39;97073.28;;;13.86;52.18
5609;BME280;2826;51.354;9.588;2024-03-02T10:59:15;97077.69;;;13.85;51.47
5609;BME280;2826;51.354;9.588;2024-03-02T11:01:45;97068.44;;;13.81;52.10
5609;BME280;2826;51.354;9.588;2024-03-02T11:04:15;97063.38;;;13.91;51.53
5609;BME280;2826;51.354;9.588;2024-03-02T11:06:47;97066.25;;;14.13;51.16
5609;BME280;2826;51.354;9.588;2024-03-02T11:09:17;97059.50;;;14.46;51.20
5609;BME280;2826;51.354;9.588;2024-03-02T11:11:45;97051.69;;;14.82;50.49
5609;BME280;2826;51.354;9.588;2024-03-02T11:14:17;97061.00;;;15.09;48.26
5609;BME280;2826;51.354;9.588;2024-03-02T11:16:43;97055.31;;;15.26;47.30
5609;BME280;2826;51.354;9.588;2024-03-02T11:19:12;97058.53;;;15.41;46.78
5609;BME280;2826;51.354;9.588;2024-03-02T11:21:39;97044.25;;;15.57;46.27
5609;BME280;2826;51.354;9.588;2024-03-02T11:24:30;97058.84;;;15.83;45.66
5609;BME280;2826;51.354;9.588;2024-03-02T11:26:59;97053.94;;;15.89;44.83
5609;BME280;2826;51.354;9.588;2024-03-02T11:29:42;97050.50;;;16.12;44.39
5609;BME280;2826;51.354;9.588;2024-03-02T11:32:14;97052.44;;;16.31;44.20
5609;BME280;2826;51.354;9.588;2024-03-02T11:34:42;97047.88;;;16.44;43.37
5609;BME280;2826;51.354;9.588;2024-03-02T11:37:11;97060.66;;;16.59;43.74
5609;BME280;2826;51.354;9.588;2024-03-02T11:39:39;97051.06;;;16.69;43.55
5609;BME280;2826;51.354;9.588;2024-03-02T11:42:06;97045.72;;;16.71;42.42
5609;BME280;2826;51.354;9.588;2024-03-02T11:44:35;97042.13;;;16.93;42.79
5609;BME280;2826;51.354;9.588;2024-03-02T11:47:06;97008.53;;;16.98;42.95
5609;BME280;2826;51.354;9.588;2024-03-02T11:49:37;97039.03;;;17.31;42.20
5609;BME280;2826;51.354;9.588;2024-03-02T11:52:05;97044.47;;;17.39;41.28
5609;BME280;2826;51.354;9.588;2024-03-02T11:54:33;97032.84;;;17.32;41.11
5609;BME280;2826;51.354;9.588;2024-03-02T11:57:03;97044.47;;;17.18;41.44
5609;BME280;2826;51.354;9.588;2024-03-02T11:59:29;97033.75;;;17.00;41.80
5609;BME280;2826;51.354;9.588;2024-03-02T12:01:57;97028.16;;;16.83;41.34
5609;BME280;2826;51.354;9.588;2024-03-02T12:04:24;97029.94;;;17.04;41.50
5609;BME280;2826;51.354;9.588;2024-03-02T12:06:54;97015.91;;;17.05;40.98
5609;BME280;2826;51.354;9.588;2024-03-02T12:09:22;97022.19;;;17.23;40.58
5609;BME280;2826;51.354;9.588;2024-03-02T12:12:02;97024.78;;;17.55;40.62
5609;BME280;2826;51.354;9.588;2024-03-02T12:14:29;97032.53;;;17.76;39.66
5609;BME280;2826;51.354;9.588;2024-03-02T12:16:56;97017.94;;;17.83;39.76
5609;BME280;2826;51.354;9.588;2024-03-02T12:19:24;97015.47;;;17.72;39.80
5609;BME280;2826;51.354;9.588;2024-03-02T12:21:51;97018.44;;;17.57;39.64
5609;BME280;2826;51.354;9.588;2024-03-02T12:24:18;97013.13;;;17.79;39.88
5609;BME280;2826;51.354;9.588;2024-03-02T12:26:45;97018.78;;;17.94;39.12
5609;BME280;2826;51.354;9.588;2024-03-02T12:29:15;97021.53;;;17.82;38.87
5609;BME280;2826;51.354;9.588;2024-03-02T12:31:42;97018.38;;;17.98;39.13
5609;BME280;2826;51.354;9.588;2024-03-02T12:34:11;97009.53;;;17.99;38.90
5609;BME280;2826;51.354;9.588;2024-03-02T12:36:38;96999.13;;;18.19;39.05
5609;BME280;2826;51.354;9.588;2024-03-02T12:39:07;97001.03;;;18.17;38.61
5609;BME280;2826;51.354;9.588;2024-03-02T12:41:35;96993.03;;;18.28;38.74
5609;BME280;2826;51.354;9.588;2024-03-02T12:44:02;96998.78;;;18.52;38.38
5609;BME280;2826;51.354;9.588;2024-03-02T12:46:30;96989.25;;;18.61;37.66
5609;BME280;2826;51.354;9.588;2024-03-02T12:48:58;96985.78;;;18.70;37.76
5609;BME280;2826;51.354;9.588;2024-03-02T12:51:24;96964.25;;;18.66;37.65
5609;BME280;2826;51.354;9.588;2024-03-02T12:53:54;96985.38;;;18.75;37.40
5609;BME280;2826;51.354;9.588;2024-03-02T12:56:21;96975.28;;;18.60;37.14
5609;BME280;2826;51.354;9.588;2024-03-02T12:58:53;96977.50;;;18.75;38.09
5609;BME280;2826;51.354;9.588;2024-03-02T13:01:19;96968.44;;;18.97;36.87
5609;BME280;2826;51.354;9.588;2024-03-02T13:03:49;96971.59;;;19.11;36.88
5609;BME280;2826;51.354;9.588;2024-03-02T13:06:17;96963.31;;;19.33;36.42
5609;BME280;2826;51.354;9.588;2024-03-02T13:08:44;96964.16;;;19.34;35.65
5609;BME280;2826;51.354;9.588;2024-03-02T13:11:12;96970.31;;;19.43;35.73
5609;BME280;2826;51.354;9.588;2024-03-02T13:13:38;96965.63;;;19.47;35.59
5609;BME280;2826;51.354;9.588;2024-03-02T13:16:08;96967.59;;;19.35;35.66
5609;BME280;2826;51.354;9.588;2024-03-02T13:18:35;96955.69;;;19.40;35.02
5609;BME280;2826;51.354;9.588;2024-03-02T13:21:03;96963.59;;;19.58;35.64
5609;BME280;2826;51.354;9.588;2024-03-02T13:23:30;96958.28;;;19.68;34.86
5609;BME280;2826;51.354;9.588;2024-03-02T13:25:57;96957.03;;;19.91;34.77
5609;BME280;2826;51.354;9.588;2024-03-02T13:28:24;96950.31;;;19.78;35.02
5609;BME280;2826;51.354;9.588;2024-03-02T13:30:51;96951.78;;;19.44;34.93